Huvudsida
METAR-TAF:

METAR-TAF

Flygplatser :

Foggia, Italien

latitud: 41-25-58N, longitud: 015-32-06E, höjd: 81 m

Aktuellt väderrapport

Denna rapport gjordes för 14 timmar och 18 minuter sedan, klockan 14:50 UTC
Vind 9 kt från syd/sydväst
Temperatur 16°C
Fuktighet 68%
Tryck 1017 hPa
Sikt 10 km eller mer
Inga moln under 1 500 m eller inga cumulonimbus

METAR: LIBF 151450Z 20009KT CAVOK 16/10 Q1017

Tid: 06:08 (05:08 UTC)


TAF: saknas

Aktuella väderrapporter och prognoser från 4000 flygplatser (METAR- och TAF-rapporter).

De tillgängliga stationerna syns som gula och röda prickar på kartan.

För musen över prickarna för att se namnen på stationerna.

Klicka sedan för att få väderrapporter och prognoser.

För att ändra kartan: Klicka på de gröna knapparna med ett svart kors på för att zooma in; den gröna knappen med ett streck på för att zooma ut; eller på de gröna pilarna för angränsande kartor.


METAR-TAF: